sensor_id;sensor_type;location;lat;lon;timestamp;temperature;humidity
37910;DHT22;23741;49.446;8.754;2023-01-24T00:01:18;8.10;65.00
37910;DHT22;23741;49.446;8.754;2023-01-24T00:03:20;8.10;64.80
37910;DHT22;23741;49.446;8.754;2023-01-24T00:05:22;8.10;64.80
37910;DHT22;23741;49.446;8.754;2023-01-24T00:07:24;8.10;64.80
37910;DHT22;23741;49.446;8.754;2023-01-24T00:09:25;8.10;64.80
37910;DHT22;23741;49.446;8.754;2023-01-24T00:11:27;8.10;64.90
37910;DHT22;23741;49.446;8.754;2023-01-24T00:13:29;8.10;64.70
37910;DHT22;23741;49.446;8.754;2023-01-24T00:15:31;8.10;64.50
37910;DHT22;23741;49.446;8.754;2023-01-24T00:17:33;8.10;64.60
37910;DHT22;23741;49.446;8.754;2023-01-24T00:19:35;8.10;64.70
37910;DHT22;23741;49.446;8.754;2023-01-24T00:21:36;8.10;64.50
37910;DHT22;23741;49.446;8.754;2023-01-24T00:23:38;8.10;64.50
37910;DHT22;23741;49.446;8.754;2023-01-24T00:25:41;8.00;64.40
37910;DHT22;23741;49.446;8.754;2023-01-24T00:27:43;8.00;64.40
37910;DHT22;23741;49.446;8.754;2023-01-24T00:29:45;8.00;64.60
37910;DHT22;23741;49.446;8.754;2023-01-24T00:31:47;8.00;64.50
37910;DHT22;23741;49.446;8.754;2023-01-24T00:33:49;8.00;64.40
37910;DHT22;23741;49.446;8.754;2023-01-24T00:35:51;8.00;64.40
37910;DHT22;23741;49.446;8.754;2023-01-24T00:37:53;8.00;64.60
37910;DHT22;23741;49.446;8.754;2023-01-24T00:39:55;7.90;64.60
37910;DHT22;23741;49.446;8.754;2023-01-24T00:41:56;7.90;64.70
37910;DHT22;23741;49.446;8.754;2023-01-24T00:43:58;7.90;64.70
37910;DHT22;23741;49.446;8.754;2023-01-24T00:46:00;7.90;64.90
37910;DHT22;23741;49.446;8.754;2023-01-24T00:48:02;7.90;65.00
37910;DHT22;23741;49.446;8.754;2023-01-24T00:50:04;8.00;65.10
37910;DHT22;23741;49.446;8.754;2023-01-24T00:52:10;8.00;65.00
37910;DHT22;23741;49.446;8.754;2023-01-24T00:54:12;7.90;64.50
37910;DHT22;23741;49.446;8.754;2023-01-24T00:56:14;7.90;64.50
37910;DHT22;23741;49.446;8.754;2023-01-24T00:58:15;7.90;64.50
37910;DHT22;23741;49.446;8.754;2023-01-24T01:00:17;7.90;64.70
37910;DHT22;23741;49.446;8.754;2023-01-24T01:02:19;7.90;64.70
37910;DHT22;23741;49.446;8.754;2023-01-24T01:04:21;7.90;64.70
37910;DHT22;23741;49.446;8.754;2023-01-24T01:06:24;7.90;64.70
37910;DHT22;23741;49.446;8.754;2023-01-24T01:08:26;7.90;65.00
37910;DHT22;23741;49.446;8.754;2023-01-24T01:10:28;7.90;65.00
37910;DHT22;23741;49.446;8.754;2023-01-24T01:12:29;7.90;64.80
37910;DHT22;23741;49.446;8.754;2023-01-24T01:14:31;7.90;64.70
37910;DHT22;23741;49.446;8.754;2023-01-24T01:16:33;7.90;64.80
37910;DHT22;23741;49.446;8.754;2023-01-24T01:18:39;7.90;64.90
37910;DHT22;23741;49.446;8.754;2023-01-24T01:20:40;7.90;65.00
37910;DHT22;23741;49.446;8.754;2023-01-24T01:22:42;7.90;65.20
37910;DHT22;23741;49.446;8.754;2023-01-24T01:24:44;7.90;65.20
37910;DHT22;23741;49.446;8.754;2023-01-24T01:26:46;7.90;65.30
37910;DHT22;23741;49.446;8.754;2023-01-24T01:28:47;7.90;65.30
37910;DHT22;23741;49.446;8.754;2023-01-24T01:30:52;7.90;65.20
37910;DHT22;23741;49.446;8.754;2023-01-24T01:32:54;7.90;65.20
37910;DHT22;23741;49.446;8.754;2023-01-24T01:34:56;7.90;65.30
37910;DHT22;23741;49.446;8.754;2023-01-24T01:39:23;8.00;65.30
37910;DHT22;23741;49.446;8.754;2023-01-24T01:41:25;8.00;65.20
37910;DHT22;23741;49.446;8.754;2023-01-24T01:43:27;8.00;65.20
37910;DHT22;23741;49.446;8.754;2023-01-24T01:47:32;8.00;65.30
37910;DHT22;23741;49.446;8.754;2023-01-24T01:49:42;8.00;65.30
37910;DHT22;23741;49.446;8.754;2023-01-24T01:51:50;8.00;65.40
37910;DHT22;23741;49.446;8.754;2023-01-24T01:53:58;8.00;65.30
37910;DHT22;23741;49.446;8.754;2023-01-24T01:56:03;8.00;65.20
37910;DHT22;23741;49.446;8.754;2023-01-24T01:58:07;8.00;65.10
37910;DHT22;23741;49.446;8.754;2023-01-24T02:00:13;8.00;65.00
37910;DHT22;23741;49.446;8.754;2023-01-24T02:02:16;8.00;65.10
37910;DHT22;23741;49.446;8.754;2023-01-24T02:04:27;8.00;65.00
37910;DHT22;23741;49.446;8.754;2023-01-24T02:06:33;8.00;64.90
37910;DHT22;23741;49.446;8.754;2023-01-24T02:08:39;8.00;64.90
37910;DHT22;23741;49.446;8.754;2023-01-24T02:10:41;8.00;65.00
37910;DHT22;23741;49.446;8.754;2023-01-24T02:13:02;8.00;65.00
37910;DHT22;23741;49.446;8.754;2023-01-24T02:15:21;7.90;64.80
37910;DHT22;23741;49.446;8.754;2023-01-24T02:17:42;7.90;64.70
37910;DHT22;23741;49.446;8.754;2023-01-24T02:22:01;7.90;64.60
37910;DHT22;23741;49.446;8.754;2023-01-24T02:24:14;7.90;64.80
37910;DHT22;23741;49.446;8.754;2023-01-24T02:26:21;7.90;65.00
37910;DHT22;23741;49.446;8.754;2023-01-24T02:28:23;7.90;65.20
37910;DHT22;23741;49.446;8.754;2023-01-24T02:30:25;7.90;65.10
37910;DHT22;23741;49.446;8.754;2023-01-24T02:32:27;7.90;65.10
37910;DHT22;23741;49.446;8.754;2023-01-24T02:34:29;7.90;65.00
37910;DHT22;23741;49.446;8.754;2023-01-24T02:36:35;7.90;65.00
37910;DHT22;23741;49.446;8.754;2023-01-24T02:38:38;7.90;65.00
37910;DHT22;23741;49.446;8.754;2023-01-24T02:40:41;7.90;65.00
37910;DHT22;23741;49.446;8.754;2023-01-24T02:42:43;7.90;65.10
37910;DHT22;23741;49.446;8.754;2023-01-24T02:47:06;7.90;65.20
37910;DHT22;23741;49.446;8.754;2023-01-24T02:49:08;7.90;65.00
37910;DHT22;23741;49.446;8.754;2023-01-24T02:51:10;7.90;65.00
37910;DHT22;23741;49.446;8.754;2023-01-24T02:53:30;7.90;64.90
37910;DHT22;23741;49.446;8.754;2023-01-24T02:55:33;7.90;64.80
37910;DHT22;23741;49.446;8.754;2023-01-24T02:57:35;7.90;64.90
37910;DHT22;23741;49.446;8.754;2023-01-24T02:59:55;7.90;65.00
37910;DHT22;23741;49.446;8.754;2023-01-24T03:01:57;7.90;65.00
37910;DHT22;23741;49.446;8.754;2023-01-24T03:03:59;7.90;65.10
37910;DHT22;23741;49.446;8.754;2023-01-24T03:06:01;7.90;65.20
37910;DHT22;23741;49.446;8.754;2023-01-24T03:08:06;7.90;65.20
37910;DHT22;23741;49.446;8.754;2023-01-24T03:10:09;7.90;65.20
37910;DHT22;23741;49.446;8.754;2023-01-24T03:12:11;7.90;65.30
37910;DHT22;23741;49.446;8.754;2023-01-24T03:14:31;7.90;65.30
37910;DHT22;23741;49.446;8.754;2023-01-24T03:16:51;7.90;65.10
37910;DHT22;23741;49.446;8.754;2023-01-24T03:19:13;7.90;65.20
37910;DHT22;23741;49.446;8.754;2023-01-24T03:21:35;7.80;64.50
37910;DHT22;23741;49.446;8.754;2023-01-24T03:23:55;7.80;64.70
37910;DHT22;23741;49.446;8.754;2023-01-24T03:26:16;7.80;64.70
37910;DHT22;23741;49.446;8.754;2023-01-24T03:28:38;7.80;65.00
37910;DHT22;23741;49.446;8.754;2023-01-24T03:30:59;7.80;65.00
37910;DHT22;23741;49.446;8.754;2023-01-24T03:33:20;7.80;65.10
37910;DHT22;23741;49.446;8.754;2023-01-24T03:35:44;7.80;64.90
37910;DHT22;23741;49.446;8.754;2023-01-24T03:37:57;7.70;64.80
37910;DHT22;23741;49.446;8.754;2023-01-24T03:40:18;7.70;65.00
37910;DHT22;23741;49.446;8.754;2023-01-24T03:42:21;7.70;65.00
37910;DHT22;23741;49.446;8.754;2023-01-24T03:44:23;7.70;65.00
37910;DHT22;23741;49.446;8.754;2023-01-24T03:46:25;7.70;64.90
37910;DHT22;23741;49.446;8.754;2023-01-24T03:48:27;7.70;64.80
37910;DHT22;23741;49.446;8.754;2023-01-24T03:50:40;7.70;64.80
37910;DHT22;23741;49.446;8.754;2023-01-24T03:53:06;7.60;64.70
37910;DHT22;23741;49.446;8.754;2023-01-24T03:55:07;7.60;64.70
37910;DHT22;23741;49.446;8.754;2023-01-24T03:57:10;7.60;64.70
37910;DHT22;23741;49.446;8.754;2023-01-24T03:59:12;7.60;64.80
37910;DHT22;23741;49.446;8.754;2023-01-24T04:01:14;7.50;64.90
37910;DHT22;23741;49.446;8.754;2023-01-24T04:03:29;7.50;65.10
37910;DHT22;23741;49.446;8.754;2023-01-24T04:05:34;7.50;65.10
37910;DHT22;23741;49.446;8.754;2023-01-24T04:07:36;7.50;65.20
37910;DHT22;23741;49.446;8.754;2023-01-24T04:09:40;7.50;65.30
37910;DHT22;23741;49.446;8.754;2023-01-24T04:11:42;7.50;65.40
37910;DHT22;23741;49.446;8.754;2023-01-24T04:13:47;7.50;65.40
37910;DHT22;23741;49.446;8.754;2023-01-24T04:15:49;7.50;65.50
37910;DHT22;23741;49.446;8.754;2023-01-24T04:18:03;7.50;65.50
37910;DHT22;23741;49.446;8.754;2023-01-24T04:20:05;7.50;65.60
37910;DHT22;23741;49.446;8.754;2023-01-24T04:22:08;7.50;65.40
37910;DHT22;23741;49.446;8.754;2023-01-24T04:24:12;7.50;65.40
37910;DHT22;23741;49.446;8.754;2023-01-24T04:26:16;7.50;65.40
37910;DHT22;23741;49.446;8.754;2023-01-24T04:28:19;7.50;65.50
37910;DHT22;23741;49.446;8.754;2023-01-24T04:30:21;7.50;65.40
37910;DHT22;23741;49.446;8.754;2023-01-24T04:32:27;7.50;65.40
37910;DHT22;23741;49.446;8.754;2023-01-24T04:34:33;7.50;65.50
37910;DHT22;23741;49.446;8.754;2023-01-24T04:36:35;7.50;65.40
37910;DHT22;23741;49.446;8.754;2023-01-24T04:38:37;7.50;65.40
37910;DHT22;23741;49.446;8.754;2023-01-24T04:40:46;7.50;65.50
37910;DHT22;23741;49.446;8.754;2023-01-24T04:42:49;7.50;65.40
37910;DHT22;23741;49.446;8.754;2023-01-24T04:44:51;7.50;65.50
37910;DHT22;23741;49.446;8.754;2023-01-24T04:46:53;7.50;65.60
37910;DHT22;23741;49.446;8.754;2023-01-24T04:48:54;7.50;65.70
37910;DHT22;23741;49.446;8.754;2023-01-24T04:51:05;7.60;65.70
37910;DHT22;23741;49.446;8.754;2023-01-24T04:53:08;7.60;65.80
37910;DHT22;23741;49.446;8.754;2023-01-24T04:55:10;7.60;65.80
37910;DHT22;23741;49.446;8.754;2023-01-24T04:57:12;7.60;65.70
37910;DHT22;23741;49.446;8.754;2023-01-24T04:59:16;7.60;65.80
37910;DHT22;23741;49.446;8.754;2023-01-24T05:01:18;7.70;65.80
37910;DHT22;23741;49.446;8.754;2023-01-24T05:03:28;7.70;65.70
37910;DHT22;23741;49.446;8.754;2023-01-24T05:05:30;7.70;65.70
37910;DHT22;23741;49.446;8.754;2023-01-24T05:07:31;7.70;65.70
37910;DHT22;23741;49.446;8.754;2023-01-24T05:09:39;7.80;65.70
37910;DHT22;23741;49.446;8.754;2023-01-24T05:11:43;7.80;65.50
37910;DHT22;23741;49.446;8.754;2023-01-24T05:13:45;7.80;65.40
37910;DHT22;23741;49.446;8.754;2023-01-24T05:15:47;7.80;65.30
37910;DHT22;23741;49.446;8.754;2023-01-24T05:17:49;7.80;65.40
37910;DHT22;23741;49.446;8.754;2023-01-24T05:19:53;7.80;65.50
37910;DHT22;23741;49.446;8.754;2023-01-24T05:21:56;7.80;65.40
37910;DHT22;23741;49.446;8.754;2023-01-24T05:23:58;7.80;65.40
37910;DHT22;23741;49.446;8.754;2023-01-24T05:26:00;7.80;65.50
37910;DHT22;23741;49.446;8.754;2023-01-24T05:28:03;7.80;65.80
37910;DHT22;23741;49.446;8.754;2023-01-24T05:30:10;7.90;65.90
37910;DHT22;23741;49.446;8.754;2023-01-24T05:32:13;7.90;66.60
37910;DHT22;23741;49.446;8.754;2023-01-24T05:34:15;7.90;65.80
37910;DHT22;23741;49.446;8.754;2023-01-24T05:36:19;7.90;65.80
37910;DHT22;23741;49.446;8.754;2023-01-24T05:38:21;7.90;65.70
37910;DHT22;23741;49.446;8.754;2023-01-24T05:40:24;7.90;65.60
37910;DHT22;23741;49.446;8.754;2023-01-24T05:42:26;7.90;65.60
37910;DHT22;23741;49.446;8.754;2023-01-24T05:44:29;8.00;65.50
37910;DHT22;23741;49.446;8.754;2023-01-24T05:46:31;8.00;65.60
37910;DHT22;23741;49.446;8.754;2023-01-24T05:48:40;8.00;65.50
37910;DHT22;23741;49.446;8.754;2023-01-24T05:50:43;8.00;65.50
37910;DHT22;23741;49.446;8.754;2023-01-24T05:52:46;8.00;65.30
37910;DHT22;23741;49.446;8.754;2023-01-24T05:54:48;8.00;65.30
37910;DHT22;23741;49.446;8.754;2023-01-24T05:56:59;8.00;65.50
37910;DHT22;23741;49.446;8.754;2023-01-24T05:59:07;8.00;65.50
37910;DHT22;23741;49.446;8.754;2023-01-24T06:01:19;8.00;65.50
37910;DHT22;23741;49.446;8.754;2023-01-24T06:03:21;8.00;65.40
37910;DHT22;23741;49.446;8.754;2023-01-24T06:05:24;8.00;65.60
37910;DHT22;23741;49.446;8.754;2023-01-24T06:07:26;8.00;65.60
37910;DHT22;23741;49.446;8.754;2023-01-24T06:09:28;8.00;66.30
37910;DHT22;23741;49.446;8.754;2023-01-24T06:11:29;8.00;65.20
37910;DHT22;23741;49.446;8.754;2023-01-24T06:13:41;8.00;65.30
37910;DHT22;23741;49.446;8.754;2023-01-24T06:15:43;8.00;65.30
37910;DHT22;23741;49.446;8.754;2023-01-24T06:17:46;8.00;65.40
37910;DHT22;23741;49.446;8.754;2023-01-24T06:19:48;8.00;65.40
37910;DHT22;23741;49.446;8.754;2023-01-24T06:22:00;8.00;65.30
37910;DHT22;23741;49.446;8.754;2023-01-24T06:24:15;8.00;65.40
37910;DHT22;23741;49.446;8.754;2023-01-24T06:26:27;8.00;65.20
37910;DHT22;23741;49.446;8.754;2023-01-24T06:28:29;8.00;65.10
37910;DHT22;23741;49.446;8.754;2023-01-24T06:30:31;8.00;65.20
37910;DHT22;23741;49.446;8.754;2023-01-24T06:32:39;8.00;65.30
37910;DHT22;23741;49.446;8.754;2023-01-24T06:39:15;8.00;65.40
37910;DHT22;23741;49.446;8.754;2023-01-24T06:41:17;8.00;65.30
37910;DHT22;23741;49.446;8.754;2023-01-24T06:43:19;8.00;65.40
37910;DHT22;23741;49.446;8.754;2023-01-24T06:45:21;8.00;65.50
37910;DHT22;23741;49.446;8.754;2023-01-24T06:47:23;8.00;65.40
37910;DHT22;23741;49.446;8.754;2023-01-24T06:49:28;8.00;65.40
37910;DHT22;23741;49.446;8.754;2023-01-24T06:51:30;8.00;65.40
37910;DHT22;23741;49.446;8.754;2023-01-24T06:53:32;8.00;65.40
37910;DHT22;23741;49.446;8.754;2023-01-24T06:55:34;8.00;65.40
37910;DHT22;23741;49.446;8.754;2023-01-24T06:57:35;8.00;65.30
37910;DHT22;23741;49.446;8.754;2023-01-24T06:59:37;8.00;65.30
37910;DHT22;23741;49.446;8.754;2023-01-24T07:01:39;8.00;65.30
37910;DHT22;23741;49.446;8.754;2023-01-24T07:03:41;8.00;65.40
37910;DHT22;23741;49.446;8.754;2023-01-24T07:05:42;8.00;65.40
37910;DHT22;23741;49.446;8.754;2023-01-24T07:07:44;8.00;65.40
37910;DHT22;23741;49.446;8.754;2023-01-24T07:09:46;8.00;65.20
37910;DHT22;23741;49.446;8.754;2023-01-24T07:11:47;8.00;65.00
37910;DHT22;23741;49.446;8.754;2023-01-24T07:13:56;8.00;65.10
37910;DHT22;23741;49.446;8.754;2023-01-24T07:16:01;8.00;65.20
37910;DHT22;23741;49.446;8.754;2023-01-24T07:18:06;7.90;65.10
37910;DHT22;23741;49.446;8.754;2023-01-24T07:20:09;7.90;65.20
37910;DHT22;23741;49.446;8.754;2023-01-24T07:22:12;7.90;65.40
37910;DHT22;23741;49.446;8.754;2023-01-24T07:24:15;7.90;65.40
37910;DHT22;23741;49.446;8.754;2023-01-24T07:26:18;7.90;65.50
37910;DHT22;23741;49.446;8.754;2023-01-24T07:28:20;7.90;65.50
37910;DHT22;23741;49.446;8.754;2023-01-24T07:30:22;7.90;65.50
37910;DHT22;23741;49.446;8.754;2023-01-24T07:32:24;7.90;65.50
37910;DHT22;23741;49.446;8.754;2023-01-24T07:34:25;7.90;65.60
37910;DHT22;23741;49.446;8.754;2023-01-24T07:36:27;7.90;65.70
37910;DHT22;23741;49.446;8.754;2023-01-24T07:38:29;7.90;65.70
37910;DHT22;23741;49.446;8.754;2023-01-24T07:40:31;7.90;65.80
37910;DHT22;23741;49.446;8.754;2023-01-24T07:42:33;8.00;65.80
37910;DHT22;23741;49.446;8.754;2023-01-24T07:44:34;8.00;65.70
37910;DHT22;23741;49.446;8.754;2023-01-24T07:46:36;8.00;65.60
37910;DHT22;23741;49.446;8.754;2023-01-24T07:48:38;8.00;65.50
37910;DHT22;23741;49.446;8.754;2023-01-24T07:50:39;8.00;65.40
37910;DHT22;23741;49.446;8.754;2023-01-24T07:52:41;8.00;65.40
37910;DHT22;23741;49.446;8.754;2023-01-24T07:54:43;8.00;65.50
37910;DHT22;23741;49.446;8.754;2023-01-24T07:56:45;8.00;65.40
37910;DHT22;23741;49.446;8.754;2023-01-24T07:58:46;8.00;65.60
37910;DHT22;23741;49.446;8.754;2023-01-24T08:00:48;8.00;65.60
37910;DHT22;23741;49.446;8.754;2023-01-24T08:02:50;8.00;65.70
37910;DHT22;23741;49.446;8.754;2023-01-24T08:04:52;8.00;65.70
37910;DHT22;23741;49.446;8.754;2023-01-24T08:06:53;8.00;65.60
37910;DHT22;23741;49.446;8.754;2023-01-24T08:09:14;8.00;65.70
37910;DHT22;23741;49.446;8.754;2023-01-24T08:11:15;8.00;65.60
37910;DHT22;23741;49.446;8.754;2023-01-24T08:13:19;8.00;65.80
37910;DHT22;23741;49.446;8.754;2023-01-24T08:15:20;8.00;65.70
37910;DHT22;23741;49.446;8.754;2023-01-24T08:17:22;8.00;65.80
37910;DHT22;23741;49.446;8.754;2023-01-24T08:19:24;8.00;65.50
37910;DHT22;23741;49.446;8.754;2023-01-24T08:21:45;8.00;65.20
37910;DHT22;23741;49.446;8.754;2023-01-24T08:23:47;8.00;65.20
37910;DHT22;23741;49.446;8.754;2023-01-24T08:25:49;7.90;65.20
37910;DHT22;23741;49.446;8.754;2023-01-24T08:27:51;8.00;65.40
37910;DHT22;23741;49.446;8.754;2023-01-24T08:29:53;7.90;65.40
37910;DHT22;23741;49.446;8.754;2023-01-24T08:31:55;7.90;65.50
37910;DHT22;23741;49.446;8.754;2023-01-24T08:33:57;7.90;65.50
37910;DHT22;23741;49.446;8.754;2023-01-24T08:35:58;7.90;65.60
37910;DHT22;23741;49.446;8.754;2023-01-24T08:38:00;7.90;65.60
37910;DHT22;23741;49.446;8.754;2023-01-24T08:40:02;7.90;65.70
37910;DHT22;23741;49.446;8.754;2023-01-24T08:42:04;7.90;65.80
37910;DHT22;23741;49.446;8.754;2023-01-24T08:44:07;7.90;65.80
37910;DHT22;23741;49.446;8.754;2023-01-24T08:46:09;7.90;65.80
37910;DHT22;23741;49.446;8.754;2023-01-24T08:48:11;7.90;65.70
37910;DHT22;23741;49.446;8.754;2023-01-24T08:50:13;7.90;65.50
37910;DHT22;23741;49.446;8.754;2023-01-24T08:52:17;7.90;65.70
37910;DHT22;23741;49.446;8.754;2023-01-24T08:54:19;7.80;65.70
37910;DHT22;23741;49.446;8.754;2023-01-24T08:56:21;7.80;65.80
37910;DHT22;23741;49.446;8.754;2023-01-24T08:58:22;7.80;65.90
37910;DHT22;23741;49.446;8.754;2023-01-24T09:00:24;7.80;65.90
37910;DHT22;23741;49.446;8.754;2023-01-24T09:02:26;7.80;65.90
37910;DHT22;23741;49.446;8.754;2023-01-24T09:04:27;7.80;66.00
37910;DHT22;23741;49.446;8.754;2023-01-24T09:06:29;7.80;65.80
37910;DHT22;23741;49.446;8.754;2023-01-24T09:08:31;7.80;65.90
37910;DHT22;23741;49.446;8.754;2023-01-24T09:10:34;7.90;66.00
37910;DHT22;23741;49.446;8.754;2023-01-24T09:12:36;7.80;66.20
37910;DHT22;23741;49.446;8.754;2023-01-24T09:14:38;7.80;66.20
37910;DHT22;23741;49.446;8.754;2023-01-24T09:16:40;7.90;66.20
37910;DHT22;23741;49.446;8.754;2023-01-24T09:28:49;7.90;66.00
37910;DHT22;23741;49.446;8.754;2023-01-24T09:30:51;7.90;66.00
37910;DHT22;23741;49.446;8.754;2023-01-24T09:32:53;7.90;65.90
37910;DHT22;23741;49.446;8.754;2023-01-24T09:34:54;7.90;66.00
37910;DHT22;23741;49.446;8.754;2023-01-24T09:36:56;7.90;66.90
37910;DHT22;23741;49.446;8.754;2023-01-24T09:38:58;7.90;66.10
37910;DHT22;23741;49.446;8.754;2023-01-24T09:44:42;7.90;66.20
37910;DHT22;23741;49.446;8.754;2023-01-24T09:46:46;7.90;66.20
37910;DHT22;23741;49.446;8.754;2023-01-24T09:48:52;8.00;66.20
37910;DHT22;23741;49.446;8.754;2023-01-24T09:50:56;7.90;66.00
37910;DHT22;23741;49.446;8.754;2023-01-24T09:53:02;8.00;66.00
37910;DHT22;23741;49.446;8.754;2023-01-24T09:57:19;8.00;66.20
37910;DHT22;23741;49.446;8.754;2023-01-24T09:59:32;8.00;66.20
37910;DHT22;23741;49.446;8.754;2023-01-24T10:01:34;8.00;66.30
37910;DHT22;23741;49.446;8.754;2023-01-24T10:03:36;8.00;66.30
37910;DHT22;23741;49.446;8.754;2023-01-24T10:05:38;8.10;66.40
37910;DHT22;23741;49.446;8.754;2023-01-24T10:07:51;8.10;66.40
37910;DHT22;23741;49.446;8.754;2023-01-24T10:12:35;8.20;66.40
37910;DHT22;23741;49.446;8.754;2023-01-24T10:18:55;8.20;66.30
37910;DHT22;23741;49.446;8.754;2023-01-24T10:21:09;8.30;66.30
37910;DHT22;23741;49.446;8.754;2023-01-24T10:25:21;8.30;66.10
37910;DHT22;23741;49.446;8.754;2023-01-24T10:27:28;8.30;66.10
37910;DHT22;23741;49.446;8.754;2023-01-24T10:29:31;8.30;66.10
37910;DHT22;23741;49.446;8.754;2023-01-24T10:31:48;8.30;66.20
37910;DHT22;23741;49.446;8.754;2023-01-24T10:34:14;8.40;66.10
37910;DHT22;23741;49.446;8.754;2023-01-24T10:38:44;8.40;66.10
37910;DHT22;23741;49.446;8.754;2023-01-24T10:40:53;8.40;66.00
37910;DHT22;23741;49.446;8.754;2023-01-24T10:42:55;8.50;66.00
37910;DHT22;23741;49.446;8.754;2023-01-24T10:52:14;8.50;66.80
37910;DHT22;23741;49.446;8.754;2023-01-24T10:54:19;8.50;66.50
37910;DHT22;23741;49.446;8.754;2023-01-24T10:56:23;8.50;65.60
37910;DHT22;23741;49.446;8.754;2023-01-24T10:58:26;8.50;65.80
37910;DHT22;23741;49.446;8.754;2023-01-24T11:02:32;8.60;65.90
37910;DHT22;23741;49.446;8.754;2023-01-24T11:04:37;8.50;65.80
37910;DHT22;23741;49.446;8.754;2023-01-24T11:06:39;8.60;65.80
37910;DHT22;23741;49.446;8.754;2023-01-24T11:08:41;8.60;65.70
37910;DHT22;23741;49.446;8.754;2023-01-24T11:10:43;8.60;65.50
37910;DHT22;23741;49.446;8.754;2023-01-24T11:12:48;8.60;66.10
37910;DHT22;23741;49.446;8.754;2023-01-24T11:14:55;8.60;65.30
37910;DHT22;23741;49.446;8.754;2023-01-24T11:16:58;8.60;65.30
37910;DHT22;23741;49.446;8.754;2023-01-24T11:19:01;8.60;65.40
37910;DHT22;23741;49.446;8.754;2023-01-24T11:21:16;8.60;65.40
37910;DHT22;23741;49.446;8.754;2023-01-24T11:23:18;8.60;65.30
37910;DHT22;23741;49.446;8.754;2023-01-24T11:25:22;8.60;65.10
37910;DHT22;23741;49.446;8.754;2023-01-24T11:27:24;8.60;65.20
37910;DHT22;23741;49.446;8.754;2023-01-24T11:29:28;8.60;65.20
37910;DHT22;23741;49.446;8.754;2023-01-24T11:31:36;8.60;65.30
37910;DHT22;23741;49.446;8.754;2023-01-24T11:33:51;8.60;65.30
37910;DHT22;23741;49.446;8.754;2023-01-24T11:36:02;8.60;65.30
37910;DHT22;23741;49.446;8.754;2023-01-24T11:42:41;8.60;65.40
37910;DHT22;23741;49.446;8.754;2023-01-24T11:51:18;8.60;65.10
37910;DHT22;23741;49.446;8.754;2023-01-24T11:55:48;8.60;65.00
37910;DHT22;23741;49.446;8.754;2023-01-24T12:11:15;8.40;64.70
37910;DHT22;23741;49.446;8.754;2023-01-24T12:13:39;8.40;64.80
37910;DHT22;23741;49.446;8.754;2023-01-24T12:18:20;8.40;65.10
37910;DHT22;23741;49.446;8.754;2023-01-24T12:22:33;8.40;65.20
37910;DHT22;23741;49.446;8.754;2023-01-24T12:24:37;8.40;65.20
37910;DHT22;23741;49.446;8.754;2023-01-24T12:26:41;8.40;65.20
37910;DHT22;23741;49.446;8.754;2023-01-24T12:28:53;8.40;65.20
37910;DHT22;23741;49.446;8.754;2023-01-24T12:30:57;8.40;65.20
37910;DHT22;23741;49.446;8.754;2023-01-24T12:33:01;8.40;65.20
37910;DHT22;23741;49.446;8.754;2023-01-24T12:39:25;8.50;65.40
37910;DHT22;23741;49.446;8.754;2023-01-24T12:41:35;8.50;65.40
37910;DHT22;23741;49.446;8.754;2023-01-24T12:45:56;8.50;65.30
37910;DHT22;23741;49.446;8.754;2023-01-24T12:48:10;8.50;65.40
37910;DHT22;23741;49.446;8.754;2023-01-24T12:53:20;8.50;65.50
37910;DHT22;23741;49.446;8.754;2023-01-24T12:59:24;8.60;65.20
37910;DHT22;23741;49.446;8.754;2023-01-24T13:01:34;8.50;65.20
37910;DHT22;23741;49.446;8.754;2023-01-24T13:05:45;8.50;65.10
37910;DHT22;23741;49.446;8.754;2023-01-24T13:12:21;8.60;65.30
37910;DHT22;23741;49.446;8.754;2023-01-24T13:18:37;8.50;65.10
37910;DHT22;23741;49.446;8.754;2023-01-24T13:20:55;8.50;65.20
37910;DHT22;23741;49.446;8.754;2023-01-24T13:29:46;8.50;65.10
37910;DHT22;23741;49.446;8.754;2023-01-24T13:33:58;8.50;65.30
37910;DHT22;23741;49.446;8.754;2023-01-24T13:36:03;8.50;65.30
37910;DHT22;23741;49.446;8.754;2023-01-24T13:38:06;8.50;65.30
37910;DHT22;23741;49.446;8.754;2023-01-24T13:42:21;8.50;65.30
37910;DHT22;23741;49.446;8.754;2023-01-24T13:44:28;8.50;65.30
37910;DHT22;23741;49.446;8.754;2023-01-24T13:48:45;8.50;65.00
37910;DHT22;23741;49.446;8.754;2023-01-24T13:50:58;8.40;65.00
37910;DHT22;23741;49.446;8.754;2023-01-24T13:53:09;8.40;65.00
37910;DHT22;23741;49.446;8.754;2023-01-24T13:59:14;8.40;65.10
37910;DHT22;23741;49.446;8.754;2023-01-24T14:01:16;8.40;65.10
37910;DHT22;23741;49.446;8.754;2023-01-24T14:03:32;8.40;65.00
37910;DHT22;23741;49.446;8.754;2023-01-24T14:05:42;8.40;65.10
37910;DHT22;23741;49.446;8.754;2023-01-24T14:07:44;8.40;65.20
37910;DHT22;23741;49.446;8.754;2023-01-24T14:09:46;8.40;65.20
37910;DHT22;23741;49.446;8.754;2023-01-24T14:11:55;8.40;65.20
37910;DHT22;23741;49.446;8.754;2023-01-24T14:14:00;8.40;65.10
37910;DHT22;23741;49.446;8.754;2023-01-24T14:16:03;8.40;65.10
37910;DHT22;23741;49.446;8.754;2023-01-24T14:20:36;8.40;65.00
37910;DHT22;23741;49.446;8.754;2023-01-24T14:22:38;8.30;65.10
37910;DHT22;23741;49.446;8.754;2023-01-24T14:24:57;8.30;65.20
37910;DHT22;23741;49.446;8.754;2023-01-24T14:27:17;8.30;65.30
37910;DHT22;23741;49.446;8.754;2023-01-24T14:29:20;8.30;65.40
37910;DHT22;23741;49.446;8.754;2023-01-24T14:33:41;8.40;65.50
37910;DHT22;23741;49.446;8.754;2023-01-24T14:35:53;8.30;65.30
37910;DHT22;23741;49.446;8.754;2023-01-24T14:38:15;8.40;65.20
37910;DHT22;23741;49.446;8.754;2023-01-24T14:40:21;8.40;65.40
37910;DHT22;23741;49.446;8.754;2023-01-24T14:42:26;8.40;65.40
37910;DHT22;23741;49.446;8.754;2023-01-24T14:46:33;8.40;65.50
37910;DHT22;23741;49.446;8.754;2023-01-24T14:48:35;8.40;65.50
37910;DHT22;23741;49.446;8.754;2023-01-24T14:50:37;8.40;65.50
37910;DHT22;23741;49.446;8.754;2023-01-24T14:52:39;8.40;65.40
37910;DHT22;23741;49.446;8.754;2023-01-24T14:54:43;8.40;65.40
37910;DHT22;23741;49.446;8.754;2023-01-24T14:56:45;8.50;65.50
37910;DHT22;23741;49.446;8.754;2023-01-24T14:58:47;8.50;65.50
37910;DHT22;23741;49.446;8.754;2023-01-24T15:00:51;8.50;65.50
37910;DHT22;23741;49.446;8.754;2023-01-24T15:04:55;8.50;65.40
37910;DHT22;23741;49.446;8.754;2023-01-24T15:07:07;8.50;65.30
37910;DHT22;23741;49.446;8.754;2023-01-24T15:09:11;8.50;65.30
37910;DHT22;23741;49.446;8.754;2023-01-24T15:11:18;8.50;65.10
37910;DHT22;23741;49.446;8.754;2023-01-24T15:13:25;8.50;64.90
37910;DHT22;23741;49.446;8.754;2023-01-24T15:15:27;8.40;64.80
37910;DHT22;23741;49.446;8.754;2023-01-24T15:17:30;8.40;64.80
37910;DHT22;23741;49.446;8.754;2023-01-24T15:19:32;8.40;64.90
37910;DHT22;23741;49.446;8.754;2023-01-24T15:21:37;8.40;65.00
37910;DHT22;23741;49.446;8.754;2023-01-24T15:23:40;8.40;65.00
37910;DHT22;23741;49.446;8.754;2023-01-24T15:25:42;8.30;65.00
37910;DHT22;23741;49.446;8.754;2023-01-24T15:27:44;8.30;65.10
37910;DHT22;23741;49.446;8.754;2023-01-24T15:29:46;8.30;64.90
37910;DHT22;23741;49.446;8.754;2023-01-24T15:31:48;8.30;64.90
37910;DHT22;23741;49.446;8.754;2023-01-24T15:33:52;8.30;64.90